Buoy 44837

sailwx.info

Track history (hours):
 
Tides and Currents Weather Stations Pressure Air Temp Water Temp Dewpoint Dewpoint Depression Visibility Wind Speed Wind Dir Waves Ship Positions

Drifting buoy 44837

Last reported at 2014-Dec-16 00:00 UTC. Time now 2014-Dec-20 06:34 UTC.
Position N 45°38' W 022°33'.

Barometer 1035.8 mb
Water temperature 13.0 ° C

Date/timePositionNaut miles runAvg speedWind from/ knotsBaromVisibWave heightAir tempDewpointWater temp
2014-Dec-16 00:00N 45°38' W 022°33'0 0.4 1035.8 13.0
2014-Dec-15 23:00N 45°38' W 022°34'1 0.8 1035.4 13.1
2014-Dec-15 22:00N 45°38' W 022°35'0 0.4 1035.1 13.1
2014-Dec-15 21:00N 45°38' W 022°35'1 0.7 1034.7 13.1
2014-Dec-15 20:00N 45°38' W 022°36'1 0.7 1034.4 13.1
2014-Dec-15 19:00N 45°37' W 022°37'0 0.4 1034.2 13.1
2014-Dec-15 18:00N 45°37' W 022°37'1 0.6 1033.8 13.1
2014-Dec-15 17:00N 45°37' W 022°37'0 0.0 1033.3 13.1
2014-Dec-15 16:00N 45°37' W 022°37'1 0.7 1032.7 13.1
2014-Dec-15 15:00N 45°36' W 022°38'0 0.0 1032.7 13.1
2014-Dec-15 14:00N 45°36' W 022°38'0 0.4 1033.0 13.1
2014-Dec-15 13:00N 45°36' W 022°38'0 0.0 1033.1 13.1
2014-Dec-15 12:00N 45°36' W 022°38'0 0.4 1033.1 13.1
2014-Dec-15 11:00N 45°36' W 022°39'1 0.6 1032.5 13.1
2014-Dec-15 10:00N 45°35' W 022°39'0 0.4 1031.9 13.1
2014-Dec-15 09:00N 45°35' W 022°40'0 0.4 1031.1 13.1
2014-Dec-15 08:00N 45°35' W 022°40'1 0.7 1030.9 13.1
2014-Dec-15 07:00N 45°35' W 022°41'0 0.0 1030.6 13.1
2014-Dec-15 06:00N 45°35' W 022°41'0 0.4 1030.3 13.1
2014-Dec-15 05:00N 45°35' W 022°41'1 0.7 1030.3 13.1
2014-Dec-15 04:00N 45°34' W 022°42'0 0.4 1030.1 13.1
2014-Dec-15 03:00N 45°34' W 022°43'0 0.4 1029.8 13.1
2014-Dec-15 02:00N 45°34' W 022°43'0 0.4 1030.3 13.1
2014-Dec-15 01:00N 45°34' W 022°44'0 0.4 1030.3 13.1
2014-Dec-15 00:00N 45°34' W 022°44'1 0.6 1030.2 13.1
2014-Dec-14 23:00N 45°34' W 022°44'0 0.4 1029.8 13.1
2014-Dec-14 22:00N 45°34' W 022°45'1 0.7 1029.7 13.1
2014-Dec-14 21:00N 45°33' W 022°46'0 0.0 1029.7 13.1
2014-Dec-14 20:00N 45°33' W 022°46'0 0.0 1029.2 13.1
2014-Dec-14 19:00N 45°33' W 022°46'0 0.0 1028.9 13.1
2014-Dec-14 18:00N 45°33' W 022°46'0 0.0 1028.4 13.1
2014-Dec-14 17:00N 45°33' W 022°46'1 0.6 1028.0 13.2
2014-Dec-14 16:00N 45°34' W 022°46'0 0.4 1027.4 13.2
2014-Dec-14 15:00N 45°34' W 022°46'0 0.0 1027.1 13.2
2014-Dec-14 14:00N 45°34' W 022°46'1 0.7 1026.9 13.2
2014-Dec-14 13:00N 45°34' W 022°47'0 0.4 1027.2 13.2
2014-Dec-14 12:00N 45°34' W 022°47'0 0.4 1027.5 13.2
2014-Dec-14 11:00N 45°34' W 022°48'1 0.8 1027.1 13.2
2014-Dec-14 10:00N 45°34' W 022°49'0 0.4 1026.8 13.2
2014-Dec-14 09:00N 45°34' W 022°50'1 1.0 1026.2 13.2
2014-Dec-14 08:00N 45°34' W 022°51'1 0.7 1025.9 13.2
2014-Dec-14 07:00N 45°33' W 022°52'0 0.4 1025.8 13.2
2014-Dec-14 06:00N 45°33' W 022°52'1 0.6 1025.9 13.2
2014-Dec-14 05:00N 45°32' W 022°52'0 0.4 1026.3 13.3
2014-Dec-14 04:00N 45°32' W 022°53'0 0.4 1026.6 13.3
2014-Dec-14 03:00N 45°32' W 022°53'   1026.6 13.3
Track history (hours):
 
Tides and Currents Weather Stations Pressure Air Temp Water Temp Dewpoint Dewpoint Depression Visibility Wind Speed Wind Dir Waves Ship Positions

Drifting buoy 44837

Last reported at 2014-Dec-16 00:00 UTC. Time now 2014-Dec-20 06:34 UTC.
Position N 45°38' W 022°33'.

Barometer 1035.8 mb
Water temperature 13.0 ° C

Date/timePositionNaut miles runAvg speedWind from/ knotsBaromVisibWave heightAir tempDewpointWater temp
2014-Dec-16 00:00N 45°38' W 022°33'0 0.4 1035.8 13.0
2014-Dec-15 23:00N 45°38' W 022°34'1 0.8 1035.4 13.1
2014-Dec-15 22:00N 45°38' W 022°35'0 0.4 1035.1 13.1
2014-Dec-15 21:00N 45°38' W 022°35'1 0.7 1034.7 13.1
2014-Dec-15 20:00N 45°38' W 022°36'1 0.7 1034.4 13.1
2014-Dec-15 19:00N 45°37' W 022°37'0 0.4 1034.2 13.1
2014-Dec-15 18:00N 45°37' W 022°37'1 0.6 1033.8 13.1
2014-Dec-15 17:00N 45°37' W 022°37'0 0.0 1033.3 13.1
2014-Dec-15 16:00N 45°37' W 022°37'1 0.7 1032.7 13.1
2014-Dec-15 15:00N 45°36' W 022°38'0 0.0 1032.7 13.1
2014-Dec-15 14:00N 45°36' W 022°38'0 0.4 1033.0 13.1
2014-Dec-15 13:00N 45°36' W 022°38'0 0.0 1033.1 13.1
2014-Dec-15 12:00N 45°36' W 022°38'0 0.4 1033.1 13.1
2014-Dec-15 11:00N 45°36' W 022°39'1 0.6 1032.5 13.1
2014-Dec-15 10:00N 45°35' W 022°39'0 0.4 1031.9 13.1
2014-Dec-15 09:00N 45°35' W 022°40'0 0.4 1031.1 13.1
2014-Dec-15 08:00N 45°35' W 022°40'1 0.7 1030.9 13.1
2014-Dec-15 07:00N 45°35' W 022°41'0 0.0 1030.6 13.1
2014-Dec-15 06:00N 45°35' W 022°41'0 0.4 1030.3 13.1
2014-Dec-15 05:00N 45°35' W 022°41'1 0.7 1030.3 13.1
2014-Dec-15 04:00N 45°34' W 022°42'0 0.4 1030.1 13.1
2014-Dec-15 03:00N 45°34' W 022°43'0 0.4 1029.8 13.1
2014-Dec-15 02:00N 45°34' W 022°43'0 0.4 1030.3 13.1
2014-Dec-15 01:00N 45°34' W 022°44'0 0.4 1030.3 13.1
2014-Dec-15 00:00N 45°34' W 022°44'1 0.6 1030.2 13.1
2014-Dec-14 23:00N 45°34' W 022°44'0 0.4 1029.8 13.1
2014-Dec-14 22:00N 45°34' W 022°45'1 0.7 1029.7 13.1
2014-Dec-14 21:00N 45°33' W 022°46'0 0.0 1029.7 13.1
2014-Dec-14 20:00N 45°33' W 022°46'0 0.0 1029.2 13.1
2014-Dec-14 19:00N 45°33' W 022°46'0 0.0 1028.9 13.1
2014-Dec-14 18:00N 45°33' W 022°46'0 0.0 1028.4 13.1
2014-Dec-14 17:00N 45°33' W 022°46'1 0.6 1028.0 13.2
2014-Dec-14 16:00N 45°34' W 022°46'0 0.4 1027.4 13.2
2014-Dec-14 15:00N 45°34' W 022°46'0 0.0 1027.1 13.2
2014-Dec-14 14:00N 45°34' W 022°46'1 0.7 1026.9 13.2
2014-Dec-14 13:00N 45°34' W 022°47'0 0.4 1027.2 13.2
2014-Dec-14 12:00N 45°34' W 022°47'0 0.4 1027.5 13.2
2014-Dec-14 11:00N 45°34' W 022°48'1 0.8 1027.1 13.2
2014-Dec-14 10:00N 45°34' W 022°49'0 0.4 1026.8 13.2
2014-Dec-14 09:00N 45°34' W 022°50'1 1.0 1026.2 13.2
2014-Dec-14 08:00N 45°34' W 022°51'1 0.7 1025.9 13.2
2014-Dec-14 07:00N 45°33' W 022°52'0 0.4 1025.8 13.2
2014-Dec-14 06:00N 45°33' W 022°52'1 0.6 1025.9 13.2
2014-Dec-14 05:00N 45°32' W 022°52'0 0.4 1026.3 13.3
2014-Dec-14 04:00N 45°32' W 022°53'0 0.4 1026.6 13.3
2014-Dec-14 03:00N 45°32' W 022°53'   1026.6 13.3

Dump ship's entire track history